createdAt,value
2022-12-14T00:01:50.194Z,7.22
2022-12-14T00:04:16.935Z,8.07
2022-12-14T00:06:43.781Z,7.10
2022-12-14T00:09:14.038Z,7.72
2022-12-14T00:11:46.285Z,7.75
2022-12-14T00:14:13.062Z,7.03
2022-12-14T00:16:45.469Z,7.05
2022-12-14T00:19:12.280Z,7.03
2022-12-14T00:21:42.120Z,7.68
2022-12-14T00:24:09.860Z,7.25
2022-12-14T00:26:38.570Z,7.53
2022-12-14T00:29:11.080Z,8.48
2022-12-14T00:31:37.838Z,7.40
2022-12-14T00:34:04.550Z,7.28
2022-12-14T00:36:35.794Z,7.55
2022-12-14T00:39:04.004Z,8.15
2022-12-14T00:41:30.580Z,8.48
2022-12-14T00:43:57.353Z,7.70
2022-12-14T00:46:26.058Z,7.47
2022-12-14T00:48:52.777Z,8.68
2022-12-14T00:51:24.576Z,8.10
2022-12-14T00:53:51.389Z,7.25
2022-12-14T00:56:19.422Z,7.03
2022-12-14T00:58:53.545Z,8.30
2022-12-14T01:01:21.803Z,7.75
2022-12-14T01:04:13.604Z,7.45
2022-12-14T01:06:40.384Z,6.68
2022-12-14T01:09:06.996Z,7.80
2022-12-14T01:11:35.927Z,7.05
2022-12-14T01:14:03.028Z,8.02
2022-12-14T01:16:29.713Z,7.07
2022-12-14T01:18:57.948Z,6.80
2022-12-14T01:21:25.139Z,8.02
2022-12-14T01:23:54.889Z,8.30
2022-12-14T01:26:23.521Z,8.38
2022-12-14T01:28:53.092Z,7.93
2022-12-14T01:31:21.682Z,6.93
2022-12-14T01:33:50.882Z,7.85
2022-12-14T01:36:22.485Z,7.25
2022-12-14T01:38:57.163Z,7.07
2022-12-14T01:41:28.579Z,9.40
2022-12-14T01:44:00.416Z,6.32
2022-12-14T01:46:41.645Z,7.70
2022-12-14T01:49:25.286Z,7.00
2022-12-14T01:51:59.810Z,6.82
2022-12-14T01:54:32.390Z,8.00
2022-12-14T02:03:02.820Z,7.45
2022-12-14T02:05:33.188Z,6.85
2022-12-14T02:08:00.146Z,7.28
2022-12-14T02:10:29.762Z,7.18
2022-12-14T02:13:08.262Z,7.97
2022-12-14T02:15:36.819Z,8.35
2022-12-14T02:18:08.200Z,7.82
2022-12-14T02:21:08.197Z,7.15
2022-12-14T02:23:57.972Z,7.38
2022-12-14T02:26:39.366Z,7.93
2022-12-14T02:29:38.821Z,7.90
2022-12-14T02:32:23.950Z,7.38
2022-12-14T02:35:15.719Z,8.10
2022-12-14T02:37:54.472Z,6.90
2022-12-14T02:40:48.307Z,8.18
2022-12-14T02:43:58.923Z,7.57
2022-12-14T02:46:57.517Z,6.95
2022-12-14T02:49:49.164Z,7.88
2022-12-14T02:52:52.826Z,8.43
2022-12-14T02:58:05.094Z,8.02
2022-12-14T03:00:36.942Z,7.75
2022-12-14T03:03:07.490Z,7.68
2022-12-14T03:05:37.017Z,8.20
2022-12-14T03:08:16.967Z,7.72
2022-12-14T03:11:02.308Z,7.50
2022-12-14T03:13:57.244Z,8.05
2022-12-14T03:16:29.286Z,8.32
2022-12-14T03:19:19.962Z,7.82
2022-12-14T03:21:58.709Z,8.00
2022-12-14T03:24:33.909Z,8.18
2022-12-14T03:27:09.230Z,7.25
2022-12-14T03:30:01.501Z,8.15
2022-12-14T03:32:31.121Z,7.43
2022-12-14T03:35:03.300Z,7.88
2022-12-14T03:37:40.907Z,9.25
2022-12-14T03:40:10.217Z,10.65
2022-12-14T03:42:58.471Z,11.30
2022-12-14T03:45:38.197Z,13.68
2022-12-14T03:48:27.414Z,24.83
2022-12-14T03:51:18.823Z,9.75
2022-12-14T03:53:55.790Z,14.98
2022-12-14T03:56:28.473Z,18.50
2022-12-14T04:01:55.049Z,8.57
2022-12-14T04:04:56.917Z,9.32
2022-12-14T04:07:34.734Z,8.00
2022-12-14T04:10:27.033Z,8.10
2022-12-14T04:13:21.410Z,8.85
2022-12-14T04:16:09.463Z,8.63
2022-12-14T04:22:19.122Z,8.38
2022-12-14T04:25:07.888Z,9.48
2022-12-14T04:27:34.721Z,8.75
2022-12-14T04:30:03.375Z,8.85
2022-12-14T04:32:38.360Z,7.97
2022-12-14T04:35:34.928Z,8.02
2022-12-14T04:38:18.003Z,10.27
2022-12-14T04:41:03.100Z,8.85
2022-12-14T04:43:39.702Z,7.85
2022-12-14T04:46:13.193Z,10.48
2022-12-14T04:49:06.681Z,8.20
2022-12-14T04:52:03.463Z,9.13
2022-12-14T04:54:59.830Z,7.53
2022-12-14T04:57:51.380Z,9.90
2022-12-14T05:00:18.468Z,9.35
2022-12-14T05:02:48.731Z,8.15
2022-12-14T05:05:24.899Z,9.40
2022-12-14T05:07:59.917Z,9.45
2022-12-14T05:10:42.768Z,9.30
2022-12-14T05:15:45.521Z,9.88
2022-12-14T05:18:16.731Z,13.55
2022-12-14T05:20:47.174Z,12.57
2022-12-14T05:23:15.965Z,13.07
2022-12-14T05:25:42.991Z,9.60
2022-12-14T05:28:12.063Z,9.95
2022-12-14T05:30:39.420Z,10.45
2022-12-14T05:33:06.394Z,9.60
2022-12-14T05:35:34.839Z,9.65
2022-12-14T05:38:03.864Z,10.77
2022-12-14T05:40:36.577Z,8.77
2022-12-14T05:45:33.532Z,10.68
2022-12-14T05:48:00.497Z,9.75
2022-12-14T05:50:31.800Z,10.27
2022-12-14T05:52:58.567Z,11.25
2022-12-14T05:55:28.365Z,11.40
2022-12-14T05:57:57.622Z,9.98
2022-12-14T06:03:15.568Z,11.82
2022-12-14T06:05:42.229Z,12.00
2022-12-14T06:08:20.863Z,11.10
2022-12-14T06:10:48.298Z,10.98
2022-12-14T06:13:16.883Z,10.77
2022-12-14T06:15:43.661Z,11.63
2022-12-14T06:18:10.453Z,16.02
2022-12-14T06:20:37.407Z,13.77
2022-12-14T06:23:06.154Z,31.55
2022-12-14T06:25:32.950Z,30.80
2022-12-14T06:28:04.194Z,13.68
2022-12-14T06:30:31.045Z,12.40
2022-12-14T06:32:58.965Z,13.32
2022-12-14T06:35:27.958Z,12.35
2022-12-14T06:37:55.937Z,12.77
2022-12-14T06:40:28.937Z,13.85
2022-12-14T06:45:53.032Z,12.93
2022-12-14T06:48:21.581Z,13.05
2022-12-14T06:50:48.654Z,12.48
2022-12-14T06:53:17.611Z,13.30
2022-12-14T06:56:06.711Z,12.38
2022-12-14T06:58:40.842Z,12.40
2022-12-14T07:01:14.035Z,12.52
2022-12-14T07:03:41.747Z,13.18
2022-12-14T07:06:09.745Z,13.68
2022-12-14T07:08:40.090Z,13.07
2022-12-14T07:11:12.269Z,13.13
2022-12-14T07:13:41.902Z,12.98
2022-12-14T07:16:15.731Z,14.40
2022-12-14T07:18:42.906Z,12.60
2022-12-14T07:21:14.367Z,13.30
2022-12-14T07:23:42.783Z,11.95
2022-12-14T07:26:18.150Z,13.45
2022-12-14T07:28:45.780Z,13.48
2022-12-14T07:31:37.275Z,12.88
2022-12-14T07:34:06.066Z,13.00
2022-12-14T07:36:32.907Z,13.30
2022-12-14T07:39:01.916Z,12.48
2022-12-14T07:41:31.099Z,13.48
2022-12-14T07:44:03.441Z,13.77
2022-12-14T07:46:33.913Z,13.48
2022-12-14T07:49:01.648Z,15.18
2022-12-14T07:51:32.764Z,13.23
2022-12-14T07:54:00.863Z,14.68
2022-12-14T07:56:33.637Z,13.30
2022-12-14T07:59:02.527Z,14.95
2022-12-14T08:01:31.685Z,16.60
2022-12-14T08:04:07.402Z,13.73
2022-12-14T08:06:36.947Z,16.45
2022-12-14T08:09:04.438Z,14.18
2022-12-14T08:11:38.479Z,13.48
2022-12-14T08:14:08.405Z,15.02
2022-12-14T08:16:37.548Z,13.90
2022-12-14T08:19:04.207Z,13.57
2022-12-14T08:21:30.966Z,12.88
2022-12-14T08:23:58.530Z,13.75
2022-12-14T08:26:30.057Z,15.63
2022-12-14T08:29:00.403Z,13.48
2022-12-14T08:31:27.561Z,13.00
2022-12-14T08:34:00.108Z,15.48
2022-12-14T08:36:33.493Z,13.75
2022-12-14T08:39:03.302Z,13.13
2022-12-14T08:41:34.044Z,13.98
2022-12-14T08:44:02.823Z,28.90
2022-12-14T08:46:32.708Z,15.90
2022-12-14T08:48:59.602Z,26.48
2022-12-14T08:51:27.748Z,19.63
2022-12-14T08:53:55.960Z,14.50
2022-12-14T08:56:25.436Z,22.95
2022-12-14T08:58:52.735Z,15.05
2022-12-14T09:01:32.330Z,19.80
2022-12-14T09:04:05.726Z,14.82
2022-12-14T09:06:36.149Z,16.25
2022-12-14T09:09:11.948Z,12.98
2022-12-14T09:11:45.862Z,14.00
2022-12-14T09:14:13.185Z,14.93
2022-12-14T09:16:43.785Z,15.13
2022-12-14T09:19:16.497Z,13.70
2022-12-14T09:24:27.713Z,13.02
2022-12-14T09:27:01.634Z,14.80
2022-12-14T09:29:31.249Z,14.55
2022-12-14T09:32:00.106Z,15.05
2022-12-14T09:34:27.095Z,15.48
2022-12-14T09:36:55.578Z,14.63
2022-12-14T09:39:22.250Z,14.90
2022-12-14T09:42:26.452Z,15.10
2022-12-14T09:45:18.071Z,14.55
2022-12-14T09:48:17.620Z,15.40
2022-12-14T09:50:51.543Z,14.23
2022-12-14T09:53:25.530Z,14.27
2022-12-14T09:55:56.955Z,16.52
2022-12-14T09:58:32.006Z,14.70
2022-12-14T10:00:59.269Z,17.00
2022-12-14T10:03:54.204Z,15.07
2022-12-14T10:06:33.456Z,14.73
2022-12-14T10:09:20.705Z,20.40
2022-12-14T10:11:52.597Z,17.75
2022-12-14T10:14:38.414Z,16.93
2022-12-14T10:17:20.032Z,15.25
2022-12-14T10:19:54.045Z,17.05
2022-12-14T10:22:38.941Z,15.88
2022-12-14T10:25:36.644Z,17.05
2022-12-14T10:28:13.620Z,16.05
2022-12-14T10:30:47.628Z,17.05
2022-12-14T10:33:20.762Z,14.90
2022-12-14T10:36:24.659Z,14.93
2022-12-14T10:39:06.716Z,17.08
2022-12-14T10:41:40.057Z,15.00
2022-12-14T10:44:33.809Z,13.95
2022-12-14T10:47:15.385Z,17.48
2022-12-14T10:49:57.969Z,14.55
2022-12-14T10:52:35.386Z,15.55
2022-12-14T10:55:14.449Z,19.42
2022-12-14T10:57:47.906Z,18.05
2022-12-14T11:00:22.839Z,19.35
2022-12-14T11:02:55.130Z,16.95
2022-12-14T11:05:56.179Z,22.70
2022-12-14T11:08:43.808Z,19.92
2022-12-14T11:11:22.020Z,17.33
2022-12-14T11:14:07.122Z,18.20
2022-12-14T11:16:40.242Z,15.98
2022-12-14T11:19:25.052Z,21.98
2022-12-14T11:22:17.122Z,17.63
2022-12-14T11:24:47.953Z,14.05
2022-12-14T11:27:20.658Z,14.00
2022-12-14T11:32:20.501Z,15.43
2022-12-14T11:34:55.741Z,16.30
2022-12-14T11:37:30.312Z,18.50
2022-12-14T11:40:03.257Z,15.15
2022-12-14T11:42:31.264Z,14.02
2022-12-14T11:45:27.049Z,14.20
2022-12-14T11:48:30.443Z,18.48
2022-12-14T11:51:15.459Z,15.27
2022-12-14T11:53:44.581Z,15.45
2022-12-14T11:56:17.363Z,14.05
2022-12-14T12:01:27.900Z,14.90
2022-12-14T12:03:57.883Z,15.18
2022-12-14T12:06:27.448Z,15.38
2022-12-14T12:09:02.737Z,15.02
2022-12-14T12:11:32.691Z,16.30
2022-12-14T12:14:03.256Z,15.65
2022-12-14T12:16:32.347Z,14.40
2022-12-14T12:19:11.828Z,16.77
2022-12-14T12:21:44.324Z,15.45
2022-12-14T12:24:10.979Z,15.20
2022-12-14T12:27:02.413Z,15.07
2022-12-14T12:29:31.286Z,16.20
2022-12-14T12:32:07.088Z,16.05
2022-12-14T12:34:43.383Z,14.65
2022-12-14T12:37:26.284Z,16.70
2022-12-14T12:40:18.600Z,15.40
2022-12-14T12:42:50.225Z,14.38
2022-12-14T12:45:48.880Z,14.77
2022-12-14T12:48:34.200Z,17.45
2022-12-14T12:51:07.367Z,15.90
2022-12-14T12:53:39.694Z,16.17
2022-12-14T12:56:14.384Z,17.27
2022-12-14T12:58:52.938Z,14.90
2022-12-14T13:01:32.808Z,17.10
2022-12-14T13:04:27.306Z,16.08
2022-12-14T13:07:10.206Z,15.00
2022-12-14T13:12:43.132Z,16.02
2022-12-14T13:15:48.220Z,14.93
2022-12-14T13:18:57.352Z,13.98
2022-12-14T13:21:27.890Z,15.48
2022-12-14T13:23:54.855Z,15.55
2022-12-14T13:27:00.893Z,16.25
2022-12-14T13:30:12.584Z,15.32
2022-12-14T13:33:17.859Z,15.77
2022-12-14T13:36:17.455Z,13.95
2022-12-14T13:39:28.171Z,17.23
2022-12-14T13:42:09.668Z,15.50
2022-12-14T13:44:51.836Z,15.45
2022-12-14T13:47:47.889Z,14.93
2022-12-14T13:50:41.931Z,17.58
2022-12-14T13:53:15.536Z,15.65
2022-12-14T13:55:55.020Z,20.27
2022-12-14T13:58:40.762Z,18.10
2022-12-14T14:01:46.286Z,16.55
2022-12-14T14:04:15.611Z,14.30
2022-12-14T14:06:50.827Z,14.13
2022-12-14T14:09:26.094Z,17.77
2022-12-14T14:12:44.190Z,17.05
2022-12-14T14:15:34.739Z,17.83
2022-12-14T14:18:06.430Z,15.38
2022-12-14T14:21:11.548Z,14.60
2022-12-14T14:24:19.921Z,14.13
2022-12-14T14:27:23.785Z,14.60
2022-12-14T14:29:51.505Z,15.20
2022-12-14T14:32:40.576Z,15.77
2022-12-14T14:35:35.238Z,16.67
2022-12-14T14:38:38.343Z,15.90
2022-12-14T14:41:32.174Z,16.25
2022-12-14T14:44:05.184Z,15.48
2022-12-14T14:46:48.802Z,16.00
2022-12-14T14:49:29.831Z,15.18
2022-12-14T14:52:25.351Z,14.88
2022-12-14T14:55:27.762Z,16.80
2022-12-14T14:58:00.144Z,15.93
2022-12-14T15:00:28.948Z,14.57
2022-12-14T15:02:57.656Z,16.55
2022-12-14T15:05:42.707Z,16.50
2022-12-14T15:08:45.792Z,17.52
2022-12-14T15:11:22.145Z,18.15
2022-12-14T15:14:13.605Z,17.83
2022-12-14T15:16:44.864Z,18.33
2022-12-14T15:19:35.239Z,19.23
2022-12-14T15:22:18.807Z,17.13
2022-12-14T15:24:48.042Z,17.50
2022-12-14T15:27:25.319Z,15.85
2022-12-14T15:30:02.620Z,15.80
2022-12-14T15:32:34.444Z,16.60
2022-12-14T15:35:30.387Z,15.20
2022-12-14T15:38:01.867Z,16.75
2022-12-14T15:40:33.896Z,15.40
2022-12-14T15:43:14.766Z,15.77
2022-12-14T15:45:43.356Z,14.98
2022-12-14T15:48:31.029Z,17.70
2022-12-14T15:51:03.216Z,16.20
2022-12-14T15:53:53.880Z,17.70
2022-12-14T15:56:39.354Z,16.90
2022-12-14T15:59:16.942Z,18.67
2022-12-14T16:01:55.834Z,15.43
2022-12-14T16:04:28.450Z,15.23
2022-12-14T16:07:09.836Z,14.70
2022-12-14T16:09:50.022Z,14.70
2022-12-14T16:12:33.544Z,15.43
2022-12-14T16:15:02.388Z,16.13
2022-12-14T16:17:50.187Z,15.07
2022-12-14T16:20:20.144Z,15.88
2022-12-14T16:23:01.115Z,17.23
2022-12-14T16:26:02.072Z,15.75
2022-12-14T16:28:31.087Z,16.92
2022-12-14T16:31:19.743Z,16.60
2022-12-14T16:34:10.816Z,16.98
2022-12-14T16:36:37.808Z,15.88
2022-12-14T16:39:22.904Z,16.10
2022-12-14T16:44:48.127Z,15.38
2022-12-14T16:50:54.968Z,15.88
2022-12-14T17:02:37.400Z,15.75
2022-12-14T17:17:03.598Z,16.80
2022-12-14T17:19:47.393Z,18.08
2022-12-14T17:22:30.855Z,18.55
2022-12-14T17:25:02.856Z,14.48
2022-12-14T17:28:20.038Z,15.75
2022-12-14T17:39:24.342Z,17.42
2022-12-14T17:42:01.740Z,17.13
2022-12-14T17:47:34.697Z,15.25
2022-12-14T17:50:15.640Z,15.85
2022-12-14T17:52:49.621Z,17.55
2022-12-14T17:55:28.182Z,14.88
2022-12-14T17:57:57.300Z,14.02
2022-12-14T18:03:50.773Z,15.65
2022-12-14T18:06:20.262Z,17.85
2022-12-14T18:08:54.231Z,15.82
2022-12-14T18:11:31.019Z,16.45
2022-12-14T18:14:04.040Z,14.75
2022-12-14T18:17:04.404Z,13.98
2022-12-14T18:19:35.466Z,21.17
2022-12-14T18:22:07.339Z,15.32
2022-12-14T18:24:37.825Z,19.77
2022-12-14T18:27:06.684Z,18.43
2022-12-14T18:29:39.031Z,17.17
2022-12-14T18:32:05.962Z,17.23
2022-12-14T18:34:32.717Z,17.17
2022-12-14T18:37:01.108Z,18.52
2022-12-14T18:39:30.791Z,18.40
2022-12-14T18:42:02.208Z,16.40
2022-12-14T18:44:34.785Z,13.60
2022-12-14T18:47:20.465Z,13.15
2022-12-14T18:50:01.288Z,13.13
2022-12-14T18:52:28.089Z,13.23
2022-12-14T18:55:25.493Z,15.63
2022-12-14T18:58:19.830Z,13.05
2022-12-14T19:01:00.400Z,13.48
2022-12-14T19:03:31.974Z,14.25
2022-12-14T19:08:53.998Z,13.85
2022-12-14T19:11:38.707Z,14.32
2022-12-14T19:14:11.077Z,15.52
2022-12-14T19:16:40.376Z,18.25
2022-12-14T19:19:07.116Z,15.57
2022-12-14T19:21:33.753Z,13.57
2022-12-14T19:24:08.814Z,15.10
2022-12-14T19:26:41.024Z,15.65
2022-12-14T19:29:10.009Z,15.15
2022-12-14T19:31:37.047Z,18.20
2022-12-14T19:34:04.170Z,16.58
2022-12-14T19:36:41.120Z,16.02
2022-12-14T19:39:08.177Z,13.00
2022-12-14T19:41:37.902Z,13.80
2022-12-14T19:44:26.802Z,15.07
2022-12-14T19:47:02.965Z,13.35
2022-12-14T19:49:35.035Z,14.68
2022-12-14T19:52:01.802Z,13.85
2022-12-14T19:54:34.083Z,13.60
2022-12-14T19:57:02.897Z,13.20
2022-12-14T19:59:29.596Z,12.38
2022-12-14T20:02:01.054Z,12.52
2022-12-14T20:04:30.772Z,12.63
2022-12-14T20:06:57.739Z,13.57
2022-12-14T20:09:27.040Z,13.85
2022-12-14T20:12:02.996Z,15.87
2022-12-14T20:14:29.802Z,14.07
2022-12-14T20:16:57.818Z,17.40
2022-12-14T20:19:30.982Z,17.23
2022-12-14T20:21:58.013Z,16.10
2022-12-14T20:24:28.107Z,15.65
2022-12-14T20:27:00.020Z,14.10
2022-12-14T20:29:26.906Z,15.88
2022-12-14T20:31:55.039Z,15.15
2022-12-14T20:34:24.607Z,14.70
2022-12-14T20:36:54.829Z,14.63
2022-12-14T20:39:21.718Z,13.60
2022-12-14T20:41:52.613Z,14.70
2022-12-14T20:44:19.434Z,13.32
2022-12-14T20:46:50.952Z,13.60
2022-12-14T20:49:20.343Z,11.88
2022-12-14T20:51:49.716Z,12.68
2022-12-14T20:54:18.967Z,13.65
2022-12-14T20:56:49.149Z,13.85
2022-12-14T20:59:16.706Z,15.60
2022-12-14T21:01:43.981Z,14.40
2022-12-14T21:04:12.954Z,14.48
2022-12-14T21:06:42.873Z,14.57
2022-12-14T21:09:14.440Z,14.45
2022-12-14T21:12:12.198Z,14.30
2022-12-14T21:14:46.246Z,13.45
2022-12-14T21:17:21.113Z,12.35
2022-12-14T21:19:48.103Z,12.75
2022-12-14T21:22:20.470Z,13.60
2022-12-14T21:25:05.292Z,12.73
2022-12-14T21:27:37.899Z,13.00
2022-12-14T21:30:08.765Z,12.57
2022-12-14T21:32:37.288Z,12.70
2022-12-14T21:35:05.927Z,12.45
2022-12-14T21:37:37.137Z,13.18
2022-12-14T21:40:04.813Z,12.80
2022-12-14T21:42:31.880Z,12.38
2022-12-14T21:45:01.897Z,12.80
2022-12-14T21:47:53.661Z,12.82
2022-12-14T21:50:20.455Z,12.88
2022-12-14T21:52:47.112Z,12.23
2022-12-14T21:55:26.367Z,13.10
2022-12-14T21:58:12.505Z,11.93
2022-12-14T22:00:42.548Z,14.48
2022-12-14T22:03:09.471Z,14.07
2022-12-14T22:05:43.260Z,14.35
2022-12-14T22:08:09.996Z,14.13
2022-12-14T22:10:37.788Z,12.38
2022-12-14T22:13:05.783Z,13.10
2022-12-14T22:15:35.463Z,12.90
2022-12-14T22:18:02.448Z,13.20
2022-12-14T22:20:30.027Z,13.57
2022-12-14T22:23:01.081Z,13.43
2022-12-14T22:25:28.885Z,12.52
2022-12-14T22:27:59.103Z,12.15
2022-12-14T22:30:31.426Z,12.27
2022-12-14T22:33:07.463Z,17.80
2022-12-14T22:35:34.986Z,13.85
2022-12-14T22:38:05.239Z,13.65
2022-12-14T22:40:32.575Z,13.48
2022-12-14T22:42:59.492Z,13.38
2022-12-14T22:45:30.046Z,12.70
2022-12-14T22:47:56.772Z,16.95
2022-12-14T22:50:28.049Z,16.13
2022-12-14T22:52:57.289Z,16.63
2022-12-14T22:55:29.825Z,14.23
2022-12-14T22:57:58.839Z,15.23
2022-12-14T23:00:27.800Z,15.18
2022-12-14T23:02:54.619Z,16.52
2022-12-14T23:05:22.452Z,20.13
2022-12-14T23:07:49.284Z,48.67
2022-12-14T23:10:37.647Z,33.83
2022-12-14T23:13:23.219Z,18.33
2022-12-14T23:16:13.719Z,13.38
2022-12-14T23:19:01.102Z,14.13
2022-12-14T23:21:46.580Z,12.65
2022-12-14T23:24:36.131Z,12.63
2022-12-14T23:27:24.391Z,8.82
2022-12-14T23:30:10.167Z,12.48
2022-12-14T23:32:56.763Z,11.18
2022-12-14T23:35:42.435Z,12.18
2022-12-14T23:38:28.110Z,11.93
2022-12-14T23:41:36.275Z,12.90
2022-12-14T23:44:23.710Z,12.65
2022-12-14T23:47:11.885Z,17.73
2022-12-14T23:49:57.139Z,12.13
2022-12-14T23:52:44.639Z,12.52
2022-12-14T23:55:36.399Z,18.95
2022-12-14T23:58:22.716Z,15.40
